Time;durP1;ratioP1;P1;durP2;ratioP2;P2;SDS_P1;SDS_P2;PMS_P1;PMS_P2;Temp;Humidity;BMP_temperature;BMP_pressure;BME280_temperature;BME280_humidity;BME280_pressure;Samples;Min_cycle;Max_cycle;Signal;HPM_P1;HPM_P2
2022/08/01 00:00:23;;;;;;;;;;;25.10;67.50;;;;;;4980324;28;19910;-89
2022/08/01 00:02:52;;;;;;;;;;;25.10;67.40;;;;;;4997260;28;19910;-90
2022/08/01 00:05:17;;;;;;;;;;;25.10;67.40;;;;;;4979403;28;19920;-90
2022/08/01 00:07:43;;;;;;;;;;;25.10;67.30;;;;;;4979582;28;20000;-90
2022/08/01 00:10:10;;;;;;;;;;;25.20;67.30;;;;;;4996551;28;19914;-90
2022/08/01 00:12:36;;;;;;;;;;;25.20;67.20;;;;;;4986868;28;19979;-89
2022/08/01 00:15:01;;;;;;;;;;;25.20;67.20;;;;;;4982358;28;20356;-90
2022/08/01 00:17:27;;;;;;;;;;;25.30;67.20;;;;;;4977415;28;19921;-89
2022/08/01 00:19:52;;;;;;;;;;;25.30;67.10;;;;;;4977178;28;19914;-89
2022/08/01 00:22:22;;;;;;;;;;;25.30;67.00;;;;;;4995301;28;19961;-89
2022/08/01 00:24:48;;;;;;;;;;;25.30;66.90;;;;;;4983477;28;20016;-89
2022/08/01 00:27:14;;;;;;;;;;;25.30;66.90;;;;;;4996900;28;19961;-89
2022/08/01 00:29:39;;;;;;;;;;;25.30;66.90;;;;;;4976421;28;19914;-89
2022/08/01 00:32:05;;;;;;;;;;;25.30;66.90;;;;;;4979589;28;19997;-89
2022/08/01 00:34:30;;;;;;;;;;;25.30;66.80;;;;;;4980482;28;19941;-88
2022/08/01 00:36:56;;;;;;;;;;;25.30;66.80;;;;;;4972469;28;20286;-89
2022/08/01 00:39:21;;;;;;;;;;;25.30;66.80;;;;;;4978393;28;19921;-88
2022/08/01 00:41:47;;;;;;;;;;;25.30;66.80;;;;;;4996930;28;19978;-88
2022/08/01 00:44:13;;;;;;;;;;;25.30;66.80;;;;;;4977818;28;19921;-89
2022/08/01 00:46:38;;;;;;;;;;;25.30;66.80;;;;;;4996198;28;20255;-88
2022/08/01 00:49:04;;;;;;;;;;;25.30;66.70;;;;;;4977074;28;19910;-90
2022/08/01 00:51:30;;;;;;;;;;;25.30;66.70;;;;;;4995238;28;19921;-90
2022/08/01 00:53:55;;;;;;;;;;;25.30;66.70;;;;;;4985547;28;19914;-89
2022/08/01 00:56:23;;;;;;;;;;;25.30;66.70;;;;;;4985112;28;19973;-89
2022/08/01 00:58:49;;;;;;;;;;;25.30;66.70;;;;;;4978095;28;20009;-89
2022/08/01 01:01:14;;;;;;;;;;;25.30;66.70;;;;;;4970054;28;19921;-90
2022/08/01 01:03:40;;;;;;;;;;;25.30;66.70;;;;;;4974628;28;19914;-89
2022/08/01 01:06:22;;;;;;;;;;;25.30;66.70;;;;;;4995745;28;19937;-89
2022/08/01 01:09:08;;;;;;;;;;;25.30;66.60;;;;;;4977488;28;19913;-89
2022/08/01 01:11:42;;;;;;;;;;;25.20;66.70;;;;;;4973928;28;19922;-89
2022/08/01 01:14:13;;;;;;;;;;;25.20;66.70;;;;;;4984663;28;19913;-89
2022/08/01 01:16:40;;;;;;;;;;;25.20;66.60;;;;;;4977852;28;19924;-89
2022/08/01 01:19:08;;;;;;;;;;;25.20;66.70;;;;;;4994419;28;20390;-89
2022/08/01 01:21:53;;;;;;;;;;;25.20;66.60;;;;;;4977162;28;19917;-89
2022/08/01 01:24:37;;;;;;;;;;;25.10;66.60;;;;;;4995022;28;20374;-89
2022/08/01 01:27:05;;;;;;;;;;;25.20;66.70;;;;;;4962320;28;20018;-89
2022/08/01 01:29:49;;;;;;;;;;;25.10;66.70;;;;;;4997443;28;20378;-90
2022/08/01 01:32:21;;;;;;;;;;;25.10;66.70;;;;;;4982293;28;19918;-89
2022/08/01 01:34:49;;;;;;;;;;;25.10;66.70;;;;;;4993631;28;20421;-89
2022/08/01 01:37:17;;;;;;;;;;;25.10;66.80;;;;;;4988907;28;19914;-90
2022/08/01 01:39:46;;;;;;;;;;;25.10;66.80;;;;;;4998536;28;19918;-90
2022/08/01 01:42:12;;;;;;;;;;;25.00;66.80;;;;;;4998380;28;19936;-89
2022/08/01 01:44:38;;;;;;;;;;;25.00;66.70;;;;;;4981375;28;19943;-89
2022/08/01 01:47:06;;;;;;;;;;;24.90;66.80;;;;;;4984087;28;19910;-89
2022/08/01 01:49:33;;;;;;;;;;;24.80;66.90;;;;;;4973216;28;20354;-89
2022/08/01 01:52:00;;;;;;;;;;;24.70;67.00;;;;;;4981020;28;20016;-89
2022/08/01 01:54:29;;;;;;;;;;;24.70;67.10;;;;;;4980700;28;19917;-89
2022/08/01 01:56:58;;;;;;;;;;;24.60;67.10;;;;;;4998059;28;19914;-89
2022/08/01 01:59:25;;;;;;;;;;;24.50;67.20;;;;;;4965487;28;20013;-89
2022/08/01 02:01:51;;;;;;;;;;;24.50;67.30;;;;;;4981673;28;20017;-90
2022/08/01 02:04:17;;;;;;;;;;;24.40;67.40;;;;;;4998285;28;19918;-89
2022/08/01 02:06:45;;;;;;;;;;;24.40;67.40;;;;;;4980681;28;20271;-89
2022/08/01 02:09:11;;;;;;;;;;;24.30;67.30;;;;;;4980364;28;20323;-89
2022/08/01 02:11:38;;;;;;;;;;;24.30;67.30;;;;;;4996374;28;19914;-89
2022/08/01 02:14:03;;;;;;;;;;;24.30;67.20;;;;;;4998025;28;19922;-89
2022/08/01 02:16:31;;;;;;;;;;;24.20;67.20;;;;;;4979953;28;19914;-88
2022/08/01 02:18:57;;;;;;;;;;;24.20;67.30;;;;;;4994579;28;19921;-89
2022/08/01 02:21:25;;;;;;;;;;;24.30;67.30;;;;;;4977531;28;19914;-89
2022/08/01 02:23:51;;;;;;;;;;;24.30;67.30;;;;;;4980613;28;20020;-90
2022/08/01 02:26:17;;;;;;;;;;;24.30;67.20;;;;;;4990493;28;19921;-89
2022/08/01 02:28:47;;;;;;;;;;;24.30;67.10;;;;;;4998244;28;20346;-89
2022/08/01 02:31:14;;;;;;;;;;;24.30;67.10;;;;;;4975474;28;19925;-89
2022/08/01 02:33:48;;;;;;;;;;;24.30;67.20;;;;;;4973569;28;19918;-89
2022/08/01 02:36:15;;;;;;;;;;;24.30;67.20;;;;;;4984387;28;19918;-89
2022/08/01 02:38:42;;;;;;;;;;;24.30;67.10;;;;;;4996710;28;20755;-89
2022/08/01 02:41:09;;;;;;;;;;;24.40;67.10;;;;;;4978985;28;19913;-89
2022/08/01 02:43:37;;;;;;;;;;;24.30;67.00;;;;;;4983486;28;19945;-89
2022/08/01 02:46:04;;;;;;;;;;;24.30;67.10;;;;;;4964547;28;19961;-89
2022/08/01 02:48:31;;;;;;;;;;;24.20;67.20;;;;;;4976976;28;19918;-88
2022/08/01 02:50:58;;;;;;;;;;;24.20;67.30;;;;;;4985480;28;20322;-89
2022/08/01 02:53:24;;;;;;;;;;;24.10;67.50;;;;;;4996711;28;20004;-89
2022/08/01 02:55:51;;;;;;;;;;;24.10;67.50;;;;;;4979394;28;19914;-89
2022/08/01 02:58:18;;;;;;;;;;;24.00;67.50;;;;;;4980798;28;19945;-89
2022/08/01 03:00:44;;;;;;;;;;;24.10;67.40;;;;;;4974415;28;20334;-89
2022/08/01 03:03:10;;;;;;;;;;;24.10;67.40;;;;;;4969528;28;20366;-89
2022/08/01 03:05:37;;;;;;;;;;;24.10;67.20;;;;;;4997188;28;20029;-89
2022/08/01 03:08:03;;;;;;;;;;;24.10;67.20;;;;;;4979810;28;20282;-89
2022/08/01 03:10:29;;;;;;;;;;;24.10;67.20;;;;;;4997379;28;20008;-89
2022/08/01 03:12:56;;;;;;;;;;;24.20;67.30;;;;;;4995548;28;19918;-89
2022/08/01 03:15:23;;;;;;;;;;;24.20;67.20;;;;;;4995046;28;20381;-89
2022/08/01 03:17:49;;;;;;;;;;;24.20;67.10;;;;;;4995791;28;19917;-89
2022/08/01 03:20:16;;;;;;;;;;;24.20;67.20;;;;;;4996072;28;20578;-89
2022/08/01 03:22:43;;;;;;;;;;;24.30;67.20;;;;;;4995733;28;19964;-88
2022/08/01 03:25:10;;;;;;;;;;;24.30;67.10;;;;;;4995035;28;19910;-88
2022/08/01 03:27:37;;;;;;;;;;;24.40;67.10;;;;;;4996802;28;20421;-89
2022/08/01 03:30:04;;;;;;;;;;;24.30;67.10;;;;;;4979674;28;19963;-89
2022/08/01 03:32:30;;;;;;;;;;;24.40;67.10;;;;;;4979026;28;20314;-89
2022/08/01 03:34:56;;;;;;;;;;;24.40;67.00;;;;;;4986835;28;19968;-89
2022/08/01 03:37:24;;;;;;;;;;;24.40;66.90;;;;;;4993825;28;19925;-89
2022/08/01 03:40:03;;;;;;;;;;;24.50;66.90;;;;;;4996619;28;19917;-89
2022/08/01 03:42:55;;;;;;;;;;;24.60;66.90;;;;;;4994564;28;19921;-89
2022/08/01 03:45:22;;;;;;;;;;;24.60;66.80;;;;;;4993130;28;19991;-89
2022/08/01 03:47:51;;;;;;;;;;;24.60;66.70;;;;;;4993426;28;20305;-89
2022/08/01 03:50:19;;;;;;;;;;;24.70;66.60;;;;;;4977965;28;19918;-88
2022/08/01 03:52:46;;;;;;;;;;;24.70;66.60;;;;;;4978039;28;19988;-89
2022/08/01 03:55:12;;;;;;;;;;;24.70;66.50;;;;;;4993110;28;19981;-89
2022/08/01 03:57:38;;;;;;;;;;;24.70;66.50;;;;;;4992598;28;19921;-89
2022/08/01 04:00:08;;;;;;;;;;;24.70;66.40;;;;;;4975453;28;19926;-89
2022/08/01 04:02:34;;;;;;;;;;;24.70;66.40;;;;;;4978768;28;19917;-88
2022/08/01 04:05:00;;;;;;;;;;;24.70;66.40;;;;;;4993127;28;19921;-88
2022/08/01 04:07:28;;;;;;;;;;;24.70;66.40;;;;;;4980853;28;19921;-89
2022/08/01 04:09:53;;;;;;;;;;;24.70;66.40;;;;;;4990357;28;20004;-89
2022/08/01 04:12:19;;;;;;;;;;;24.80;66.50;;;;;;4989833;28;19957;-90
2022/08/01 04:14:44;;;;;;;;;;;24.80;66.40;;;;;;4994812;28;19933;-89
2022/08/01 04:17:10;;;;;;;;;;;24.80;66.40;;;;;;4978293;28;19917;-90
2022/08/01 04:19:35;;;;;;;;;;;24.90;66.30;;;;;;4988289;28;19914;-89
2022/08/01 04:22:02;;;;;;;;;;;24.90;66.20;;;;;;4994318;28;19925;-89
2022/08/01 04:24:29;;;;;;;;;;;25.00;66.30;;;;;;4978442;28;20338;-89
2022/08/01 04:26:56;;;;;;;;;;;25.00;66.10;;;;;;4978364;28;20378;-89
2022/08/01 04:29:21;;;;;;;;;;;25.00;66.10;;;;;;4995996;28;19960;-89
2022/08/01 04:31:48;;;;;;;;;;;25.00;66.10;;;;;;4992396;28;19926;-89
2022/08/01 04:34:16;;;;;;;;;;;25.00;66.10;;;;;;4979788;28;19960;-90
2022/08/01 04:36:42;;;;;;;;;;;25.00;66.10;;;;;;4979407;28;19918;-91
2022/08/01 04:39:08;;;;;;;;;;;25.00;66.20;;;;;;4997069;28;20348;-91
2022/08/01 04:41:35;;;;;;;;;;;25.10;66.20;;;;;;4980179;28;19940;-91
2022/08/01 04:44:02;;;;;;;;;;;25.20;66.20;;;;;;4979624;28;19910;-90
2022/08/01 04:46:28;;;;;;;;;;;25.10;66.00;;;;;;4991759;28;19921;-90
2022/08/01 04:48:54;;;;;;;;;;;25.10;66.10;;;;;;4972968;28;19910;-89
2022/08/01 04:51:22;;;;;;;;;;;25.00;66.30;;;;;;4991662;28;20369;-88
2022/08/01 04:53:58;;;;;;;;;;;24.90;66.50;;;;;;4989619;28;19968;-88
2022/08/01 04:56:23;;;;;;;;;;;24.80;66.70;;;;;;4974714;28;20367;-89
2022/08/01 04:59:39;;;;;;;;;;;24.80;66.90;;;;;;4982311;28;19921;-90
2022/08/01 05:01:34;;;;;;;;;;;24.80;67.00;;;;;;4981468;28;19918;-89
2022/08/01 05:04:00;;;;;;;;;;;24.80;66.90;;;;;;4968244;28;20341;-89
2022/08/01 05:06:25;;;;;;;;;;;24.90;66.90;;;;;;4999134;28;19925;-89
2022/08/01 05:08:51;;;;;;;;;;;25.00;66.80;;;;;;4982436;28;20000;-89
2022/08/01 05:11:16;;;;;;;;;;;25.00;66.70;;;;;;4999643;28;19914;-89
2022/08/01 05:13:42;;;;;;;;;;;25.10;66.60;;;;;;4980974;28;19936;-89
2022/08/01 05:16:07;;;;;;;;;;;25.20;66.60;;;;;;4998631;28;19917;-89
2022/08/01 05:18:32;;;;;;;;;;;25.20;66.60;;;;;;4998653;28;19910;-89
2022/08/01 05:20:58;;;;;;;;;;;25.30;66.60;;;;;;4981588;28;19914;-89
2022/08/01 05:23:23;;;;;;;;;;;25.30;66.60;;;;;;4980643;28;20461;-89
2022/08/01 05:25:49;;;;;;;;;;;25.40;66.50;;;;;;4998048;28;19910;-89
2022/08/01 05:28:15;;;;;;;;;;;25.50;66.50;;;;;;4981352;28;19918;-89
2022/08/01 05:30:40;;;;;;;;;;;25.60;66.30;;;;;;4981736;28;20313;-89
2022/08/01 05:33:06;;;;;;;;;;;25.70;66.30;;;;;;4998774;28;20397;-89
2022/08/01 05:35:31;;;;;;;;;;;25.70;66.30;;;;;;4999799;28;19910;-89
2022/08/01 05:37:57;;;;;;;;;;;25.80;66.40;;;;;;4999233;28;19925;-89
2022/08/01 05:40:22;;;;;;;;;;;25.90;66.40;;;;;;4980882;28;20358;-89
2022/08/01 05:42:48;;;;;;;;;;;26.00;66.30;;;;;;4996893;28;19914;-89
2022/08/01 05:45:13;;;;;;;;;;;26.10;66.30;;;;;;4980982;28;19914;-89
2022/08/01 05:47:39;;;;;;;;;;;26.20;66.30;;;;;;4998137;28;20281;-89
2022/08/01 05:50:04;;;;;;;;;;;26.20;66.20;;;;;;4996525;28;19921;-89
2022/08/01 05:52:30;;;;;;;;;;;26.20;66.10;;;;;;4996774;28;20381;-89
2022/08/01 05:54:56;;;;;;;;;;;26.30;66.00;;;;;;4980553;28;20004;-89
2022/08/01 05:57:21;;;;;;;;;;;26.30;65.90;;;;;;4980378;28;20291;-89
2022/08/01 05:59:47;;;;;;;;;;;26.30;66.00;;;;;;4980535;28;19917;-89
2022/08/01 06:02:12;;;;;;;;;;;26.40;65.90;;;;;;4997993;28;19913;-88
2022/08/01 06:04:40;;;;;;;;;;;26.40;65.80;;;;;;4996422;28;20312;-90
2022/08/01 06:07:05;;;;;;;;;;;26.40;65.50;;;;;;4997967;28;19953;-88
2022/08/01 06:09:31;;;;;;;;;;;26.30;65.60;;;;;;4980066;28;19913;-89
2022/08/01 06:11:56;;;;;;;;;;;26.40;65.10;;;;;;4980390;28;19925;-89
2022/08/01 06:14:22;;;;;;;;;;;26.30;65.30;;;;;;4980851;28;20358;-88
2022/08/01 06:16:47;;;;;;;;;;;26.40;65.60;;;;;;4998152;28;20270;-89
2022/08/01 06:19:12;;;;;;;;;;;26.40;65.70;;;;;;4997230;28;20063;-88
2022/08/01 06:21:38;;;;;;;;;;;26.40;65.30;;;;;;4997762;28;20342;-89
2022/08/01 06:24:04;;;;;;;;;;;26.40;65.40;;;;;;4996484;28;19909;-89
2022/08/01 06:26:31;;;;;;;;;;;26.40;65.50;;;;;;4996980;28;20024;-89
2022/08/01 06:28:56;;;;;;;;;;;26.50;65.60;;;;;;4980116;28;20338;-89
2022/08/01 06:31:21;;;;;;;;;;;26.50;65.50;;;;;;4979380;28;19960;-89
2022/08/01 06:33:47;;;;;;;;;;;26.60;65.50;;;;;;4979638;28;19913;-89
2022/08/01 06:36:12;;;;;;;;;;;26.60;65.40;;;;;;4980281;28;19910;-89
2022/08/01 06:38:38;;;;;;;;;;;26.60;65.00;;;;;;4979680;28;19910;-89
2022/08/01 06:41:12;;;;;;;;;;;26.60;65.20;;;;;;4997318;28;19959;-89
2022/08/01 06:43:37;;;;;;;;;;;26.70;65.40;;;;;;4997176;28;19918;-89
2022/08/01 06:46:03;;;;;;;;;;;26.70;65.50;;;;;;4995679;28;20000;-89
2022/08/01 06:48:29;;;;;;;;;;;26.70;65.50;;;;;;4997479;28;19925;-89
2022/08/01 06:51:07;;;;;;;;;;;26.70;65.20;;;;;;4995404;28;19914;-89
2022/08/01 06:53:34;;;;;;;;;;;26.70;65.00;;;;;;4996766;28;19918;-89
2022/08/01 06:55:59;;;;;;;;;;;26.70;64.70;;;;;;4992371;28;19946;-89
2022/08/01 06:58:24;;;;;;;;;;;26.60;64.10;;;;;;4997567;28;20309;-89
2022/08/01 07:00:50;;;;;;;;;;;26.50;63.90;;;;;;4994851;28;19914;-89
2022/08/01 07:03:16;;;;;;;;;;;26.40;63.40;;;;;;4996280;28;19920;-89
2022/08/01 07:06:14;;;;;;;;;;;26.30;63.00;;;;;;4975270;28;20261;-89
2022/08/01 07:08:40;;;;;;;;;;;26.20;63.10;;;;;;4979198;28;20007;-89
2022/08/01 07:11:05;;;;;;;;;;;26.20;63.60;;;;;;5015871;28;19968;-89
2022/08/01 07:13:32;;;;;;;;;;;26.20;63.20;;;;;;5015497;28;19926;-89
2022/08/01 07:15:57;;;;;;;;;;;26.20;63.40;;;;;;4998306;28;19975;-89
2022/08/01 07:18:23;;;;;;;;;;;26.30;64.00;;;;;;5015533;28;19909;-88
2022/08/01 07:20:49;;;;;;;;;;;26.40;63.60;;;;;;4998123;28;19924;-89
2022/08/01 07:23:22;;;;;;;;;;;26.40;63.90;;;;;;5015402;28;19923;-89
2022/08/01 07:25:49;;;;;;;;;;;26.50;64.20;;;;;;5015515;28;19917;-89
2022/08/01 07:28:15;;;;;;;;;;;26.60;64.00;;;;;;4987011;28;20366;-89
2022/08/01 07:30:46;;;;;;;;;;;26.70;63.50;;;;;;4978390;28;19941;-89
2022/08/01 07:33:12;;;;;;;;;;;26.70;62.70;;;;;;4977772;28;20009;-89
2022/08/01 07:35:43;;;;;;;;;;;26.60;62.70;;;;;;4995451;28;19968;-89
2022/08/01 07:38:08;;;;;;;;;;;26.60;62.90;;;;;;4993119;28;19964;-89
2022/08/01 07:40:34;;;;;;;;;;;26.60;62.30;;;;;;4983069;28;20362;-89
2022/08/01 07:42:59;;;;;;;;;;;26.70;62.90;;;;;;4975035;28;19911;-89
2022/08/01 07:45:26;;;;;;;;;;;26.80;63.50;;;;;;4958175;28;19961;-89
2022/08/01 07:47:52;;;;;;;;;;;26.90;63.90;;;;;;4958510;28;20356;-89
2022/08/01 07:50:17;;;;;;;;;;;27.00;64.00;;;;;;4989014;28;20008;-89
2022/08/01 07:52:43;;;;;;;;;;;27.10;64.00;;;;;;4987171;28;20366;-88
2022/08/01 07:55:13;;;;;;;;;;;27.10;64.40;;;;;;5003486;28;20252;-89
2022/08/01 07:57:38;;;;;;;;;;;27.20;64.90;;;;;;4997158;28;19920;-90
2022/08/01 08:00:05;;;;;;;;;;;27.50;65.10;;;;;;4985568;28;19909;-89
2022/08/01 08:02:31;;;;;;;;;;;27.80;65.20;;;;;;4993815;28;19933;-88
2022/08/01 08:04:56;;;;;;;;;;;28.20;65.30;;;;;;4977289;28;19958;-89
2022/08/01 08:07:22;;;;;;;;;;;28.60;65.50;;;;;;4995529;28;19993;-89
2022/08/01 08:09:47;;;;;;;;;;;29.00;65.10;;;;;;4980959;28;19929;-89
2022/08/01 08:12:13;;;;;;;;;;;29.30;64.70;;;;;;4995193;28;19922;-89
2022/08/01 08:14:40;;;;;;;;;;;29.50;63.40;;;;;;4976513;28;21273;-89
2022/08/01 08:17:05;;;;;;;;;;;29.70;62.80;;;;;;4974661;28;20327;-89
2022/08/01 08:19:33;;;;;;;;;;;29.90;61.70;;;;;;4972561;28;19913;-89
2022/08/01 08:22:01;;;;;;;;;;;30.10;61.90;;;;;;4994597;28;19926;-89
2022/08/01 08:24:27;;;;;;;;;;;30.30;61.70;;;;;;4967253;28;20281;-89
2022/08/01 08:26:54;;;;;;;;;;;30.30;61.00;;;;;;5009870;28;19914;-89
2022/08/01 08:29:21;;;;;;;;;;;30.40;60.00;;;;;;4980112;28;19918;-88
2022/08/01 08:31:47;;;;;;;;;;;30.40;58.50;;;;;;4979585;28;19968;-88
2022/08/01 08:34:12;;;;;;;;;;;30.50;59.70;;;;;;4990957;28;20004;-88
2022/08/01 08:36:38;;;;;;;;;;;30.60;58.90;;;;;;4978281;28;19918;-88
2022/08/01 08:39:04;;;;;;;;;;;30.70;59.10;;;;;;4979881;28;19922;-88
2022/08/01 08:41:30;;;;;;;;;;;30.90;59.20;;;;;;5021071;28;19917;-89
2022/08/01 08:43:57;;;;;;;;;;;31.20;59.80;;;;;;5005515;28;19913;-88
2022/08/01 08:46:24;;;;;;;;;;;31.50;59.80;;;;;;4982258;28;19914;-89
2022/08/01 08:48:51;;;;;;;;;;;31.70;59.30;;;;;;5000139;28;20016;-88
2022/08/01 08:51:17;;;;;;;;;;;31.80;57.70;;;;;;4983878;28;19940;-89
2022/08/01 08:53:44;;;;;;;;;;;31.70;55.70;;;;;;4983005;28;19914;-88
2022/08/01 08:56:13;;;;;;;;;;;31.50;55.80;;;;;;5001829;28;19967;-88
2022/08/01 08:58:40;;;;;;;;;;;31.40;55.80;;;;;;4999979;28;19948;-89
2022/08/01 09:01:08;;;;;;;;;;;31.50;55.70;;;;;;4984922;28;19963;-88
2022/08/01 09:03:34;;;;;;;;;;;31.30;52.20;;;;;;4980970;28;19945;-88
2022/08/01 09:05:59;;;;;;;;;;;31.00;50.80;;;;;;4996514;28;19936;-88
2022/08/01 09:08:28;;;;;;;;;;;30.70;51.10;;;;;;5000165;28;19914;-88
2022/08/01 09:10:54;;;;;;;;;;;30.50;51.80;;;;;;4984522;28;20354;-88
2022/08/01 09:13:19;;;;;;;;;;;30.30;51.20;;;;;;4981216;28;19921;-89
2022/08/01 09:15:55;;;;;;;;;;;30.10;51.40;;;;;;5012295;28;20301;-88
2022/08/01 09:18:33;;;;;;;;;;;30.20;52.80;;;;;;5000691;28;20000;-88
2022/08/01 09:21:05;;;;;;;;;;;30.20;52.00;;;;;;4997411;28;19914;-90
2022/08/01 09:23:34;;;;;;;;;;;30.30;52.10;;;;;;4998753;28;19958;-88
2022/08/01 09:26:00;;;;;;;;;;;30.50;53.00;;;;;;4997907;28;19914;-88
2022/08/01 09:28:29;;;;;;;;;;;30.70;52.50;;;;;;4981437;28;19918;-88
2022/08/01 09:30:58;;;;;;;;;;;30.80;51.60;;;;;;4978767;28;20020;-88
2022/08/01 09:33:24;;;;;;;;;;;30.80;51.60;;;;;;4979699;28;20374;-88
2022/08/01 09:35:56;;;;;;;;;;;31.00;51.10;;;;;;4963561;28;20017;-89
2022/08/01 09:38:22;;;;;;;;;;;31.10;50.50;;;;;;4981722;28;20469;-89
2022/08/01 09:40:48;;;;;;;;;;;31.20;50.70;;;;;;4984119;28;20016;-88
2022/08/01 09:43:13;;;;;;;;;;;31.50;48.30;;;;;;4979617;28;19968;-88
2022/08/01 09:45:39;;;;;;;;;;;31.80;48.00;;;;;;4996441;28;19914;-88
2022/08/01 09:48:08;;;;;;;;;;;32.30;48.80;;;;;;4980877;28;19914;-89
2022/08/01 09:50:41;;;;;;;;;;;32.70;47.30;;;;;;4994703;28;19976;-89
2022/08/01 09:53:07;;;;;;;;;;;33.20;47.10;;;;;;5001337;28;19941;-89
2022/08/01 09:55:37;;;;;;;;;;;33.60;46.70;;;;;;5007370;28;19925;-89
2022/08/01 09:58:11;;;;;;;;;;;34.20;46.50;;;;;;4982134;28;19921;-89
2022/08/01 10:00:37;;;;;;;;;;;34.70;46.30;;;;;;4999845;28;19921;-89
2022/08/01 10:03:22;;;;;;;;;;;35.40;47.30;;;;;;4999484;28;20060;-89
2022/08/01 10:05:49;;;;;;;;;;;36.30;46.20;;;;;;5012463;28;19917;-88
2022/08/01 10:08:15;;;;;;;;;;;36.80;42.60;;;;;;4984856;28;19971;-88
2022/08/01 10:10:40;;;;;;;;;;;36.70;40.10;;;;;;4983770;28;20008;-89
2022/08/01 10:13:07;;;;;;;;;;;36.30;38.60;;;;;;4982387;28;19910;-89
2022/08/01 10:15:36;;;;;;;;;;;35.80;38.40;;;;;;4997396;28;20254;-88
2022/08/01 10:18:04;;;;;;;;;;;35.40;38.30;;;;;;4980854;28;19976;-85
2022/08/01 10:20:30;;;;;;;;;;;35.00;38.40;;;;;;4983033;28;20013;-87
2022/08/01 10:22:59;;;;;;;;;;;34.70;38.70;;;;;;4981324;28;19989;-87
2022/08/01 10:25:33;;;;;;;;;;;34.30;38.60;;;;;;4991310;28;19917;-88
2022/08/01 10:28:00;;;;;;;;;;;34.00;38.90;;;;;;5000040;28;20364;-87
2022/08/01 10:30:25;;;;;;;;;;;33.80;39.70;;;;;;4995898;28;20004;-87
2022/08/01 10:32:54;;;;;;;;;;;33.50;39.30;;;;;;5000881;28;19951;-87
2022/08/01 10:35:22;;;;;;;;;;;33.20;39.40;;;;;;4990166;28;19921;-87
2022/08/01 10:37:50;;;;;;;;;;;32.80;38.80;;;;;;4981031;28;19921;-87
2022/08/01 10:40:16;;;;;;;;;;;32.60;39.30;;;;;;4999509;28;20285;-87
2022/08/01 10:42:43;;;;;;;;;;;32.90;40.60;;;;;;5016297;28;19918;-87
2022/08/01 10:45:09;;;;;;;;;;;33.60;39.40;;;;;;5000292;28;19920;-88
2022/08/01 10:47:40;;;;;;;;;;;34.30;39.00;;;;;;4999988;28;19924;-87
2022/08/01 10:50:18;;;;;;;;;;;34.70;39.20;;;;;;4993054;28;20388;-87
2022/08/01 10:53:03;;;;;;;;;;;35.20;36.80;;;;;;4999707;28;19964;-87
2022/08/01 10:55:45;;;;;;;;;;;35.30;35.80;;;;;;5000038;28;20315;-88
2022/08/01 10:58:10;;;;;;;;;;;35.30;35.50;;;;;;5017835;28;19918;-87
2022/08/01 11:00:38;;;;;;;;;;;35.30;36.20;;;;;;4985368;28;19917;-88
2022/08/01 11:03:03;;;;;;;;;;;35.30;36.40;;;;;;4981436;28;20374;-88
2022/08/01 11:05:37;;;;;;;;;;;35.10;35.50;;;;;;5011273;28;19988;-88
2022/08/01 11:08:08;;;;;;;;;;;34.80;34.90;;;;;;4983990;28;19925;-88
2022/08/01 11:10:37;;;;;;;;;;;34.50;34.90;;;;;;4999622;28;19921;-87
2022/08/01 11:13:07;;;;;;;;;;;34.20;34.80;;;;;;5016896;28;19921;-88
2022/08/01 11:15:35;;;;;;;;;;;34.00;35.30;;;;;;4999454;28;19909;-88
2022/08/01 11:18:02;;;;;;;;;;;33.80;35.70;;;;;;4999741;28;19979;-87
2022/08/01 11:20:33;;;;;;;;;;;33.90;36.30;;;;;;5017999;28;19944;-88
2022/08/01 11:23:04;;;;;;;;;;;34.00;36.60;;;;;;5017507;28;19932;-88
2022/08/01 11:25:37;;;;;;;;;;;34.20;36.10;;;;;;5017654;28;19910;-88
2022/08/01 11:28:18;;;;;;;;;;;34.10;36.00;;;;;;4999602;28;20385;-87
2022/08/01 11:31:08;;;;;;;;;;;33.90;35.50;;;;;;4998400;28;19924;-87
2022/08/01 11:33:40;;;;;;;;;;;33.80;35.80;;;;;;5016274;28;19917;-88
2022/08/01 11:36:12;;;;;;;;;;;33.60;36.30;;;;;;4990703;28;19917;-89
2022/08/01 11:38:39;;;;;;;;;;;33.50;35.90;;;;;;4998891;28;19929;-89
2022/08/01 11:41:21;;;;;;;;;;;33.40;35.80;;;;;;4996790;28;20333;-88
2022/08/01 11:43:59;;;;;;;;;;;33.30;35.60;;;;;;4999505;28;20412;-88
2022/08/01 11:46:43;;;;;;;;;;;33.20;36.60;;;;;;4986868;28;19941;-89
2022/08/01 11:49:24;;;;;;;;;;;33.20;36.40;;;;;;4999069;28;19914;-88
2022/08/01 11:52:00;;;;;;;;;;;33.10;36.10;;;;;;4995457;28;19917;-89
2022/08/01 11:54:31;;;;;;;;;;;33.00;36.10;;;;;;5000321;28;19918;-89
2022/08/01 11:56:58;;;;;;;;;;;33.00;36.60;;;;;;5016292;28;20286;-88
2022/08/01 11:59:23;;;;;;;;;;;33.20;37.30;;;;;;4996625;28;19914;-89
2022/08/01 12:01:49;;;;;;;;;;;33.30;37.10;;;;;;4983205;28;19978;-88
2022/08/01 12:04:18;;;;;;;;;;;33.40;36.10;;;;;;4997158;28;19918;-88
2022/08/01 12:06:44;;;;;;;;;;;33.40;36.60;;;;;;4976404;28;20282;-88
2022/08/01 12:09:17;;;;;;;;;;;33.50;37.00;;;;;;4967392;28;19913;-89
2022/08/01 12:11:43;;;;;;;;;;;33.50;36.20;;;;;;4984693;28;20017;-88
2022/08/01 12:14:09;;;;;;;;;;;33.30;35.60;;;;;;4997786;28;19953;-88
2022/08/01 12:16:34;;;;;;;;;;;33.20;35.70;;;;;;4979810;28;19913;-89
2022/08/01 12:19:00;;;;;;;;;;;33.00;35.50;;;;;;4996360;28;19981;-89
2022/08/01 12:21:25;;;;;;;;;;;32.80;36.10;;;;;;4981399;28;19917;-89
2022/08/01 12:24:03;;;;;;;;;;;32.80;36.10;;;;;;4994708;28;19913;-88
2022/08/01 12:26:39;;;;;;;;;;;32.80;36.30;;;;;;5003871;28;19914;-89
2022/08/01 12:29:08;;;;;;;;;;;32.70;36.10;;;;;;4981000;28;19917;-89
2022/08/01 12:31:34;;;;;;;;;;;32.50;36.10;;;;;;4995809;28;19920;-88
2022/08/01 12:34:20;;;;;;;;;;;32.40;36.60;;;;;;4983412;28;19918;-88
2022/08/01 12:36:46;;;;;;;;;;;32.30;36.70;;;;;;4989377;28;20063;-89
2022/08/01 12:39:11;;;;;;;;;;;32.10;36.70;;;;;;4992586;28;20398;-88
2022/08/01 12:41:37;;;;;;;;;;;32.00;37.20;;;;;;4982919;28;19922;-89
2022/08/01 12:44:12;;;;;;;;;;;31.90;37.30;;;;;;4996079;28;19925;-89
2022/08/01 12:46:39;;;;;;;;;;;31.80;37.40;;;;;;4979473;28;19990;-88
2022/08/01 12:49:04;;;;;;;;;;;31.80;37.90;;;;;;4982839;28;19917;-89
2022/08/01 12:51:35;;;;;;;;;;;31.80;38.10;;;;;;4996529;28;19968;-88
2022/08/01 12:54:01;;;;;;;;;;;31.90;38.30;;;;;;4998852;28;19918;-89
2022/08/01 12:56:31;;;;;;;;;;;31.90;38.40;;;;;;5005159;28;20285;-88
2022/08/01 12:58:56;;;;;;;;;;;32.00;38.60;;;;;;4995754;28;19921;-88
2022/08/01 13:01:25;;;;;;;;;;;32.00;38.80;;;;;;5000391;28;19917;-88
2022/08/01 13:03:59;;;;;;;;;;;32.10;38.90;;;;;;4979714;28;19910;-89
2022/08/01 13:06:28;;;;;;;;;;;32.20;39.00;;;;;;4992397;28;20281;-88
2022/08/01 13:08:54;;;;;;;;;;;32.20;38.90;;;;;;4995713;28;19924;-89
2022/08/01 13:11:20;;;;;;;;;;;32.20;38.70;;;;;;4993767;28;20337;-89
2022/08/01 13:13:49;;;;;;;;;;;32.30;38.80;;;;;;5016706;28;19932;-87
2022/08/01 13:16:17;;;;;;;;;;;32.40;38.70;;;;;;5006327;28;20354;-87
2022/08/01 13:18:48;;;;;;;;;;;32.50;38.70;;;;;;4997424;28;19917;-88
2022/08/01 13:21:15;;;;;;;;;;;32.70;38.60;;;;;;5000294;28;19910;-90
2022/08/01 13:23:41;;;;;;;;;;;33.00;38.50;;;;;;4979894;28;19925;-89
2022/08/01 13:26:07;;;;;;;;;;;33.20;38.00;;;;;;5000207;28;19917;-89
2022/08/01 13:28:33;;;;;;;;;;;33.40;37.90;;;;;;4982472;28;20366;-88
2022/08/01 13:31:00;;;;;;;;;;;33.60;37.00;;;;;;4997604;28;19918;-89
2022/08/01 13:33:28;;;;;;;;;;;33.80;36.90;;;;;;5021135;28;19928;-90
2022/08/01 13:35:54;;;;;;;;;;;33.90;36.60;;;;;;4978631;28;19914;-90
2022/08/01 13:38:20;;;;;;;;;;;34.20;35.60;;;;;;4983901;28;19980;-88
2022/08/01 13:40:45;;;;;;;;;;;34.30;35.20;;;;;;5005415;28;19914;-87
2022/08/01 13:43:11;;;;;;;;;;;34.50;35.20;;;;;;4981595;28;20008;-88
2022/08/01 13:45:38;;;;;;;;;;;34.70;35.10;;;;;;4999944;28;19910;-88
2022/08/01 13:48:04;;;;;;;;;;;34.80;34.20;;;;;;4982139;28;19925;-88
2022/08/01 13:50:29;;;;;;;;;;;34.80;32.80;;;;;;4988069;28;19917;-88
2022/08/01 13:52:55;;;;;;;;;;;34.70;32.50;;;;;;4982217;28;20359;-88
2022/08/01 13:55:20;;;;;;;;;;;34.70;32.50;;;;;;4984452;28;20326;-87
2022/08/01 13:57:46;;;;;;;;;;;34.70;32.00;;;;;;5018363;28;19965;-88
2022/08/01 14:00:11;;;;;;;;;;;34.70;32.20;;;;;;4992253;28;19910;-87
2022/08/01 14:02:37;;;;;;;;;;;34.70;31.50;;;;;;4999226;28;19989;-88
2022/08/01 14:05:03;;;;;;;;;;;34.50;31.10;;;;;;4981922;28;19997;-87
2022/08/01 14:07:28;;;;;;;;;;;34.40;31.20;;;;;;4981567;28;19917;-87
2022/08/01 14:09:54;;;;;;;;;;;34.30;30.80;;;;;;4983747;28;19910;-87
2022/08/01 14:12:19;;;;;;;;;;;34.20;30.90;;;;;;4998608;28;19921;-88
2022/08/01 14:14:45;;;;;;;;;;;34.10;31.00;;;;;;4981531;28;20476;-89
2022/08/01 14:17:10;;;;;;;;;;;34.10;31.20;;;;;;5016927;28;19909;-89
2022/08/01 14:19:36;;;;;;;;;;;34.10;31.40;;;;;;5015687;28;19997;-88